sensor_id;sensor_type;location;lat;lon;timestamp;pressure;altitude;pressure_sealevel;temperature
24201;BMP280;2801;50.972;7.856;2023-04-24T00:01:56;96186.88;;;10.37
24201;BMP280;2801;50.972;7.856;2023-04-24T00:04:25;96186.13;;;10.40
24201;BMP280;2801;50.972;7.856;2023-04-24T00:06:53;96190.41;;;10.41
24201;BMP280;2801;50.972;7.856;2023-04-24T00:09:24;96188.91;;;10.44
24201;BMP280;2801;50.972;7.856;2023-04-24T00:11:51;96186.63;;;10.46
24201;BMP280;2801;50.972;7.856;2023-04-24T00:14:18;96189.31;;;10.46
24201;BMP280;2801;50.972;7.856;2023-04-24T00:16:45;96181.72;;;10.48
24201;BMP280;2801;50.972;7.856;2023-04-24T00:19:12;96179.75;;;10.45
24201;BMP280;2801;50.972;7.856;2023-04-24T00:21:40;96175.88;;;10.42
24201;BMP280;2801;50.972;7.856;2023-04-24T00:24:08;96169.72;;;10.42
24201;BMP280;2801;50.972;7.856;2023-04-24T00:26:35;96171.91;;;10.36
24201;BMP280;2801;50.972;7.856;2023-04-24T00:29:02;96165.78;;;10.36
24201;BMP280;2801;50.972;7.856;2023-04-24T00:31:29;96170.44;;;10.39
24201;BMP280;2801;50.972;7.856;2023-04-24T00:33:57;96172.06;;;10.43
24201;BMP280;2801;50.972;7.856;2023-04-24T00:36:24;96172.13;;;10.47
24201;BMP280;2801;50.972;7.856;2023-04-24T00:38:51;96163.41;;;10.50
24201;BMP280;2801;50.972;7.856;2023-04-24T00:41:18;96163.03;;;10.51
24201;BMP280;2801;50.972;7.856;2023-04-24T00:43:45;96164.94;;;10.51
24201;BMP280;2801;50.972;7.856;2023-04-24T00:46:13;96161.69;;;10.42
24201;BMP280;2801;50.972;7.856;2023-04-24T00:48:41;96160.13;;;10.41
24201;BMP280;2801;50.972;7.856;2023-04-24T00:51:08;96157.91;;;10.43
24201;BMP280;2801;50.972;7.856;2023-04-24T00:53:35;96159.34;;;10.40
24201;BMP280;2801;50.972;7.856;2023-04-24T00:56:02;96155.47;;;10.38
24201;BMP280;2801;50.972;7.856;2023-04-24T00:58:29;96161.91;;;10.33
24201;BMP280;2801;50.972;7.856;2023-04-24T01:00:59;96161.91;;;10.33
24201;BMP280;2801;50.972;7.856;2023-04-24T01:03:30;96161.47;;;10.31
24201;BMP280;2801;50.972;7.856;2023-04-24T01:05:58;96158.00;;;10.31
24201;BMP280;2801;50.972;7.856;2023-04-24T01:08:28;96157.25;;;10.30
24201;BMP280;2801;50.972;7.856;2023-04-24T01:10:56;96158.00;;;10.31
24201;BMP280;2801;50.972;7.856;2023-04-24T01:13:24;96160.97;;;10.26
24201;BMP280;2801;50.972;7.856;2023-04-24T01:15:51;96158.38;;;10.29
24201;BMP280;2801;50.972;7.856;2023-04-24T01:18:18;96158.00;;;10.31
24201;BMP280;2801;50.972;7.856;2023-04-24T01:20:46;96157.31;;;10.34
24201;BMP280;2801;50.972;7.856;2023-04-24T01:23:13;96150.41;;;10.33
24201;BMP280;2801;50.972;7.856;2023-04-24T01:25:40;96155.72;;;10.29
24201;BMP280;2801;50.972;7.856;2023-04-24T01:28:08;96145.00;;;10.29
24201;BMP280;2801;50.972;7.856;2023-04-24T01:30:35;96149.56;;;10.29
24201;BMP280;2801;50.972;7.856;2023-04-24T01:33:02;96150.72;;;10.28
24201;BMP280;2801;50.972;7.856;2023-04-24T01:35:29;96149.91;;;10.27
24201;BMP280;2801;50.972;7.856;2023-04-24T01:37:56;96148.03;;;10.28
24201;BMP280;2801;50.972;7.856;2023-04-24T01:40:23;96145.97;;;10.21
24201;BMP280;2801;50.972;7.856;2023-04-24T01:42:51;96141.03;;;10.23
24201;BMP280;2801;50.972;7.856;2023-04-24T01:45:18;96144.06;;;10.22
24201;BMP280;2801;50.972;7.856;2023-04-24T01:47:45;96133.78;;;10.24
24201;BMP280;2801;50.972;7.856;2023-04-24T01:50:13;96134.91;;;10.23
24201;BMP280;2801;50.972;7.856;2023-04-24T01:52:40;96130.69;;;10.22
24201;BMP280;2801;50.972;7.856;2023-04-24T01:55:08;96135.69;;;10.23
24201;BMP280;2801;50.972;7.856;2023-04-24T01:57:36;96139.16;;;10.24
24201;BMP280;2801;50.972;7.856;2023-04-24T02:00:04;96134.06;;;10.19
24201;BMP280;2801;50.972;7.856;2023-04-24T02:02:31;96138.31;;;10.20
24201;BMP280;2801;50.972;7.856;2023-04-24T02:04:58;96129.47;;;10.19
24201;BMP280;2801;50.972;7.856;2023-04-24T02:07:25;96146.25;;;10.16
24201;BMP280;2801;50.972;7.856;2023-04-24T02:09:52;96151.59;;;10.16
24201;BMP280;2801;50.972;7.856;2023-04-24T02:12:19;96146.25;;;10.16
24201;BMP280;2801;50.972;7.856;2023-04-24T02:14:46;96156.25;;;10.19
24201;BMP280;2801;50.972;7.856;2023-04-24T02:17:13;96148.22;;;10.19
24201;BMP280;2801;50.972;7.856;2023-04-24T02:19:42;96154.78;;;10.22
24201;BMP280;2801;50.972;7.856;2023-04-24T02:22:09;96147.09;;;10.20
24201;BMP280;2801;50.972;7.856;2023-04-24T02:24:38;96141.03;;;10.23
24201;BMP280;2801;50.972;7.856;2023-04-24T02:27:05;96148.38;;;10.26
24201;BMP280;2801;50.972;7.856;2023-04-24T02:29:33;96151.81;;;10.27
24201;BMP280;2801;50.972;7.856;2023-04-24T02:32:00;96147.69;;;10.29
24201;BMP280;2801;50.972;7.856;2023-04-24T02:34:27;96151.47;;;10.28
24201;BMP280;2801;50.972;7.856;2023-04-24T02:36:53;96147.53;;;10.22
24201;BMP280;2801;50.972;7.856;2023-04-24T02:39:20;96145.19;;;10.21
24201;BMP280;2801;50.972;7.856;2023-04-24T02:41:47;96149.72;;;10.17
24201;BMP280;2801;50.972;7.856;2023-04-24T02:44:14;96141.59;;;10.13
24201;BMP280;2801;50.972;7.856;2023-04-24T02:46:41;96155.69;;;10.10
24201;BMP280;2801;50.972;7.856;2023-04-24T02:49:08;96154.56;;;10.11
24201;BMP280;2801;50.972;7.856;2023-04-24T02:51:35;96166.81;;;10.12
24201;BMP280;2801;50.972;7.856;2023-04-24T02:54:04;96165.88;;;10.05
24201;BMP280;2801;50.972;7.856;2023-04-24T02:56:31;96169.16;;;9.98
24201;BMP280;2801;50.972;7.856;2023-04-24T02:58:58;96180.13;;;9.93
24201;BMP280;2801;50.972;7.856;2023-04-24T03:01:25;96186.97;;;9.91
24201;BMP280;2801;50.972;7.856;2023-04-24T03:03:52;96198.66;;;9.83
24201;BMP280;2801;50.972;7.856;2023-04-24T03:06:19;96190.88;;;9.78
24201;BMP280;2801;50.972;7.856;2023-04-24T03:08:47;96193.03;;;9.72
24201;BMP280;2801;50.972;7.856;2023-04-24T03:11:14;96192.97;;;9.69
24201;BMP280;2801;50.972;7.856;2023-04-24T03:13:41;96195.47;;;9.62
24201;BMP280;2801;50.972;7.856;2023-04-24T03:16:08;96191.66;;;9.63
24201;BMP280;2801;50.972;7.856;2023-04-24T03:18:35;96200.41;;;9.60
24201;BMP280;2801;50.972;7.856;2023-04-24T03:21:02;96194.59;;;9.58
24201;BMP280;2801;50.972;7.856;2023-04-24T03:23:30;96201.00;;;9.53
24201;BMP280;2801;50.972;7.856;2023-04-24T03:25:57;96203.66;;;9.53
24201;BMP280;2801;50.972;7.856;2023-04-24T03:28:24;96203.25;;;9.51
24201;BMP280;2801;50.972;7.856;2023-04-24T03:30:51;96200.13;;;9.49
24201;BMP280;2801;50.972;7.856;2023-04-24T03:33:18;96196.69;;;9.49
24201;BMP280;2801;50.972;7.856;2023-04-24T03:35:45;96198.50;;;9.45
24201;BMP280;2801;50.972;7.856;2023-04-24T03:38:12;96208.75;;;9.43
24201;BMP280;2801;50.972;7.856;2023-04-24T03:40:39;96222.63;;;9.33
24201;BMP280;2801;50.972;7.856;2023-04-24T03:43:06;96214.28;;;9.19
24201;BMP280;2801;50.972;7.856;2023-04-24T03:45:33;96216.25;;;9.06
24201;BMP280;2801;50.972;7.856;2023-04-24T03:48:00;96224.22;;;8.91
24201;BMP280;2801;50.972;7.856;2023-04-24T03:50:27;96232.75;;;8.81
24201;BMP280;2801;50.972;7.856;2023-04-24T03:52:55;96235.34;;;8.65
24201;BMP280;2801;50.972;7.856;2023-04-24T03:55:22;96230.06;;;8.53
24201;BMP280;2801;50.972;7.856;2023-04-24T03:57:49;96248.53;;;8.46
24201;BMP280;2801;50.972;7.856;2023-04-24T04:00:16;96244.53;;;8.40
24201;BMP280;2801;50.972;7.856;2023-04-24T04:02:43;96241.88;;;8.40
24201;BMP280;2801;50.972;7.856;2023-04-24T04:05:10;96234.19;;;8.39
24201;BMP280;2801;50.972;7.856;2023-04-24T04:07:37;96247.53;;;8.39
24201;BMP280;2801;50.972;7.856;2023-04-24T04:10:05;96245.47;;;8.32
24201;BMP280;2801;50.972;7.856;2023-04-24T04:12:33;96243.25;;;8.34
24201;BMP280;2801;50.972;7.856;2023-04-24T04:15:00;96247.38;;;8.32
24201;BMP280;2801;50.972;7.856;2023-04-24T04:17:27;96255.47;;;8.35
24201;BMP280;2801;50.972;7.856;2023-04-24T04:19:54;96249.03;;;8.24
24201;BMP280;2801;50.972;7.856;2023-04-24T04:22:21;96244.16;;;8.26
24201;BMP280;2801;50.972;7.856;2023-04-24T04:24:48;96242.00;;;8.20
24201;BMP280;2801;50.972;7.856;2023-04-24T04:27:17;96243.56;;;8.09
24201;BMP280;2801;50.972;7.856;2023-04-24T04:29:45;96255.94;;;8.01
24201;BMP280;2801;50.972;7.856;2023-04-24T04:32:12;96255.28;;;7.92
24201;BMP280;2801;50.972;7.856;2023-04-24T04:34:39;96252.63;;;7.92
24201;BMP280;2801;50.972;7.856;2023-04-24T04:37:06;96252.94;;;7.91
24201;BMP280;2801;50.972;7.856;2023-04-24T04:39:33;96254.50;;;7.92
24201;BMP280;2801;50.972;7.856;2023-04-24T04:42:00;96256.03;;;7.93
24201;BMP280;2801;50.972;7.856;2023-04-24T04:44:27;96269.94;;;7.98
24201;BMP280;2801;50.972;7.856;2023-04-24T04:46:56;96269.59;;;8.00
24201;BMP280;2801;50.972;7.856;2023-04-24T04:49:23;96259.25;;;7.98
24201;BMP280;2801;50.972;7.856;2023-04-24T04:51:51;96265.63;;;7.94
24201;BMP280;2801;50.972;7.856;2023-04-24T04:54:17;96259.50;;;7.93
24201;BMP280;2801;50.972;7.856;2023-04-24T04:56:44;96264.59;;;7.86
24201;BMP280;2801;50.972;7.856;2023-04-24T04:59:11;96269.06;;;7.82
24201;BMP280;2801;50.972;7.856;2023-04-24T05:01:39;96269.72;;;7.79
24201;BMP280;2801;50.972;7.856;2023-04-24T05:04:06;96277.16;;;7.86
24201;BMP280;2801;50.972;7.856;2023-04-24T05:06:33;96277.63;;;7.88
24201;BMP280;2801;50.972;7.856;2023-04-24T05:09:00;96274.28;;;7.91
24201;BMP280;2801;50.972;7.856;2023-04-24T05:11:27;96281.63;;;7.94
24201;BMP280;2801;50.972;7.856;2023-04-24T05:13:54;96281.41;;;7.99
24201;BMP280;2801;50.972;7.856;2023-04-24T05:16:21;96280.94;;;7.97
24201;BMP280;2801;50.972;7.856;2023-04-24T05:18:48;96277.75;;;8.03
24201;BMP280;2801;50.972;7.856;2023-04-24T05:21:15;96285.38;;;8.05
24201;BMP280;2801;50.972;7.856;2023-04-24T05:23:42;96283.28;;;8.10
24201;BMP280;2801;50.972;7.856;2023-04-24T05:26:09;96291.50;;;8.17
24201;BMP280;2801;50.972;7.856;2023-04-24T05:28:36;96289.28;;;8.19
24201;BMP280;2801;50.972;7.856;2023-04-24T05:31:03;96276.41;;;8.21
24201;BMP280;2801;50.972;7.856;2023-04-24T05:33:31;96295.75;;;8.30
24201;BMP280;2801;50.972;7.856;2023-04-24T05:35:57;96287.59;;;8.39
24201;BMP280;2801;50.972;7.856;2023-04-24T05:38:24;96293.28;;;8.49
24201;BMP280;2801;50.972;7.856;2023-04-24T05:40:51;96295.91;;;8.61
24201;BMP280;2801;50.972;7.856;2023-04-24T05:43:18;96295.00;;;8.69
24201;BMP280;2801;50.972;7.856;2023-04-24T05:45:45;96289.59;;;8.81
24201;BMP280;2801;50.972;7.856;2023-04-24T05:48:12;96296.56;;;8.98
24201;BMP280;2801;50.972;7.856;2023-04-24T05:50:39;96289.91;;;9.19
24201;BMP280;2801;50.972;7.856;2023-04-24T05:53:06;96299.81;;;9.46
24201;BMP280;2801;50.972;7.856;2023-04-24T05:55:34;96299.03;;;9.61
24201;BMP280;2801;50.972;7.856;2023-04-24T05:58:01;96303.28;;;9.62
24201;BMP280;2801;50.972;7.856;2023-04-24T06:00:27;96306.28;;;9.61
24201;BMP280;2801;50.972;7.856;2023-04-24T06:02:55;96297.63;;;9.52
24201;BMP280;2801;50.972;7.856;2023-04-24T06:05:22;96292.13;;;9.45
24201;BMP280;2801;50.972;7.856;2023-04-24T06:07:50;96305.56;;;9.48
24201;BMP280;2801;50.972;7.856;2023-04-24T06:10:17;96306.25;;;9.45
24201;BMP280;2801;50.972;7.856;2023-04-24T06:12:44;96301.84;;;9.37
24201;BMP280;2801;50.972;7.856;2023-04-24T06:15:11;96311.69;;;9.33
24201;BMP280;2801;50.972;7.856;2023-04-24T06:17:57;96299.16;;;9.22
24201;BMP280;2801;50.972;7.856;2023-04-24T06:20:24;96303.72;;;9.21
24201;BMP280;2801;50.972;7.856;2023-04-24T06:22:51;96290.59;;;9.16
24201;BMP280;2801;50.972;7.856;2023-04-24T06:25:18;96300.50;;;9.16
24201;BMP280;2801;50.972;7.856;2023-04-24T06:27:46;96294.50;;;9.19
24201;BMP280;2801;50.972;7.856;2023-04-24T06:30:13;96296.22;;;9.27
24201;BMP280;2801;50.972;7.856;2023-04-24T06:32:40;96300.91;;;9.30
24201;BMP280;2801;50.972;7.856;2023-04-24T06:35:07;96294.84;;;9.33
24201;BMP280;2801;50.972;7.856;2023-04-24T06:37:36;96290.28;;;9.33
24201;BMP280;2801;50.972;7.856;2023-04-24T06:40:03;96279.72;;;9.25
24201;BMP280;2801;50.972;7.856;2023-04-24T06:42:34;96292.56;;;9.19
24201;BMP280;2801;50.972;7.856;2023-04-24T06:45:02;96286.47;;;9.19
24201;BMP280;2801;50.972;7.856;2023-04-24T06:47:29;96285.09;;;9.25
24201;BMP280;2801;50.972;7.856;2023-04-24T06:50:14;96283.88;;;9.22
24201;BMP280;2801;50.972;7.856;2023-04-24T06:52:41;96295.88;;;9.28
24201;BMP280;2801;50.972;7.856;2023-04-24T06:55:08;96285.06;;;9.68
24201;BMP280;2801;50.972;7.856;2023-04-24T06:57:35;96276.44;;;10.05
24201;BMP280;2801;50.972;7.856;2023-04-24T07:00:04;96279.00;;;10.17
24201;BMP280;2801;50.972;7.856;2023-04-24T07:02:49;96284.13;;;10.07
24201;BMP280;2801;50.972;7.856;2023-04-24T07:05:17;96282.38;;;9.99
24201;BMP280;2801;50.972;7.856;2023-04-24T07:07:47;96281.34;;;10.03
24201;BMP280;2801;50.972;7.856;2023-04-24T07:10:15;96281.72;;;10.36
24201;BMP280;2801;50.972;7.856;2023-04-24T07:13:00;96279.81;;;10.71
24201;BMP280;2801;50.972;7.856;2023-04-24T07:15:27;96276.56;;;10.81
24201;BMP280;2801;50.972;7.856;2023-04-24T07:17:55;96275.81;;;10.81
24201;BMP280;2801;50.972;7.856;2023-04-24T07:20:39;96284.75;;;10.69
24201;BMP280;2801;50.972;7.856;2023-04-24T07:23:06;96284.25;;;10.64
24201;BMP280;2801;50.972;7.856;2023-04-24T07:25:33;96283.03;;;10.42
24201;BMP280;2801;50.972;7.856;2023-04-24T07:28:00;96286.94;;;10.29
24201;BMP280;2801;50.972;7.856;2023-04-24T07:30:27;96298.34;;;10.26
24201;BMP280;2801;50.972;7.856;2023-04-24T07:32:59;96288.44;;;10.11
24201;BMP280;2801;50.972;7.856;2023-04-24T07:35:27;96294.47;;;10.08
24201;BMP280;2801;50.972;7.856;2023-04-24T07:37:54;96303.72;;;10.11
24201;BMP280;2801;50.972;7.856;2023-04-24T07:40:21;96308.44;;;10.17
24201;BMP280;2801;50.972;7.856;2023-04-24T07:42:48;96312.03;;;10.06
24201;BMP280;2801;50.972;7.856;2023-04-24T07:45:16;96325.47;;;9.94
24201;BMP280;2801;50.972;7.856;2023-04-24T07:47:43;96324.84;;;9.85
24201;BMP280;2801;50.972;7.856;2023-04-24T07:50:12;96328.91;;;9.79
24201;BMP280;2801;50.972;7.856;2023-04-24T07:52:39;96329.09;;;9.70
24201;BMP280;2801;50.972;7.856;2023-04-24T07:55:07;96336.13;;;9.63
24201;BMP280;2801;50.972;7.856;2023-04-24T07:57:34;96333.38;;;9.59
24201;BMP280;2801;50.972;7.856;2023-04-24T08:00:04;96330.84;;;9.51
24201;BMP280;2801;50.972;7.856;2023-04-24T08:02:32;96345.69;;;9.48
24201;BMP280;2801;50.972;7.856;2023-04-24T08:05:17;96339.13;;;9.46
24201;BMP280;2801;50.972;7.856;2023-04-24T08:07:46;96346.72;;;9.44
24201;BMP280;2801;50.972;7.856;2023-04-24T08:10:16;96339.75;;;9.39
24201;BMP280;2801;50.972;7.856;2023-04-24T08:12:43;96340.69;;;9.19
24201;BMP280;2801;50.972;7.856;2023-04-24T08:15:10;96343.16;;;9.12
24201;BMP280;2801;50.972;7.856;2023-04-24T08:17:37;96332.72;;;9.07
24201;BMP280;2801;50.972;7.856;2023-04-24T08:20:21;96358.50;;;9.00
24201;BMP280;2801;50.972;7.856;2023-04-24T08:22:48;96341.13;;;8.94
24201;BMP280;2801;50.972;7.856;2023-04-24T08:25:15;96343.16;;;8.85
24201;BMP280;2801;50.972;7.856;2023-04-24T08:27:42;96353.75;;;8.81
24201;BMP280;2801;50.972;7.856;2023-04-24T08:30:10;96354.41;;;8.78
24201;BMP280;2801;50.972;7.856;2023-04-24T08:32:37;96356.75;;;8.80
24201;BMP280;2801;50.972;7.856;2023-04-24T08:35:05;96355.19;;;8.79
24201;BMP280;2801;50.972;7.856;2023-04-24T08:37:49;96371.91;;;8.76
24201;BMP280;2801;50.972;7.856;2023-04-24T08:40:17;96375.47;;;8.68
24201;BMP280;2801;50.972;7.856;2023-04-24T08:42:45;96378.28;;;8.71
24201;BMP280;2801;50.972;7.856;2023-04-24T08:45:12;96394.31;;;8.71
24201;BMP280;2801;50.972;7.856;2023-04-24T08:47:58;96387.41;;;8.58
24201;BMP280;2801;50.972;7.856;2023-04-24T08:50:26;96394.44;;;8.51
24201;BMP280;2801;50.972;7.856;2023-04-24T08:52:53;96399.31;;;8.49
24201;BMP280;2801;50.972;7.856;2023-04-24T08:55:38;96408.13;;;8.37
24201;BMP280;2801;50.972;7.856;2023-04-24T08:58:06;96414.69;;;8.28
24201;BMP280;2801;50.972;7.856;2023-04-24T09:00:33;96396.97;;;8.23
24201;BMP280;2801;50.972;7.856;2023-04-24T09:03:01;96422.84;;;8.11
24201;BMP280;2801;50.972;7.856;2023-04-24T09:05:30;96428.28;;;8.02
24201;BMP280;2801;50.972;7.856;2023-04-24T09:07:57;96430.38;;;7.97
24201;BMP280;2801;50.972;7.856;2023-04-24T09:10:26;96451.44;;;7.78
24201;BMP280;2801;50.972;7.856;2023-04-24T09:12:54;96443.97;;;7.71
24201;BMP280;2801;50.972;7.856;2023-04-24T09:15:22;96458.09;;;7.72
24201;BMP280;2801;50.972;7.856;2023-04-24T09:17:49;96455.63;;;7.66
24201;BMP280;2801;50.972;7.856;2023-04-24T09:20:16;96463.94;;;7.65
24201;BMP280;2801;50.972;7.856;2023-04-24T09:22:45;96466.28;;;7.66
24201;BMP280;2801;50.972;7.856;2023-04-24T09:25:12;96460.81;;;7.51
24201;BMP280;2801;50.972;7.856;2023-04-24T09:27:44;96472.50;;;7.58
24201;BMP280;2801;50.972;7.856;2023-04-24T09:30:29;96477.56;;;7.51
24201;BMP280;2801;50.972;7.856;2023-04-24T09:33:14;96471.16;;;7.32
24201;BMP280;2801;50.972;7.856;2023-04-24T09:35:59;96489.72;;;7.20
24201;BMP280;2801;50.972;7.856;2023-04-24T09:38:36;96497.78;;;7.11
24201;BMP280;2801;50.972;7.856;2023-04-24T09:41:06;96484.84;;;7.01
24201;BMP280;2801;50.972;7.856;2023-04-24T09:43:35;96489.91;;;6.94
24201;BMP280;2801;50.972;7.856;2023-04-24T09:46:07;96485.59;;;6.81
24201;BMP280;2801;50.972;7.856;2023-04-24T09:48:53;96492.19;;;6.75
24201;BMP280;2801;50.972;7.856;2023-04-24T09:51:38;96496.56;;;6.80
24201;BMP280;2801;50.972;7.856;2023-04-24T09:54:20;96496.53;;;6.88
24201;BMP280;2801;50.972;7.856;2023-04-24T09:56:50;96497.56;;;6.96
24201;BMP280;2801;50.972;7.856;2023-04-24T09:59:19;96499.72;;;7.02
24201;BMP280;2801;50.972;7.856;2023-04-24T10:01:46;96497.19;;;7.06
24201;BMP280;2801;50.972;7.856;2023-04-24T10:04:27;96504.34;;;7.14
24201;BMP280;2801;50.972;7.856;2023-04-24T10:06:56;96513.38;;;7.21
24201;BMP280;2801;50.972;7.856;2023-04-24T10:09:26;96517.56;;;7.31
24201;BMP280;2801;50.972;7.856;2023-04-24T10:11:54;96528.38;;;7.34
24201;BMP280;2801;50.972;7.856;2023-04-24T10:14:39;96530.41;;;7.37
24201;BMP280;2801;50.972;7.856;2023-04-24T10:17:10;96535.19;;;7.44
24201;BMP280;2801;50.972;7.856;2023-04-24T10:19:40;96539.41;;;7.45
24201;BMP280;2801;50.972;7.856;2023-04-24T10:22:26;96557.88;;;7.50
24201;BMP280;2801;50.972;7.856;2023-04-24T10:24:54;96545.94;;;7.56
24201;BMP280;2801;50.972;7.856;2023-04-24T10:27:21;96535.25;;;7.56
24201;BMP280;2801;50.972;7.856;2023-04-24T10:29:53;96552.13;;;7.68
24201;BMP280;2801;50.972;7.856;2023-04-24T10:32:37;96539.16;;;7.79
24201;BMP280;2801;50.972;7.856;2023-04-24T10:35:08;96541.97;;;7.83
24201;BMP280;2801;50.972;7.856;2023-04-24T10:37:39;96560.09;;;7.89
24201;BMP280;2801;50.972;7.856;2023-04-24T10:40:11;96554.25;;;7.96
24201;BMP280;2801;50.972;7.856;2023-04-24T10:42:41;96563.69;;;7.93
24201;BMP280;2801;50.972;7.856;2023-04-24T10:45:27;96571.47;;;7.98
24201;BMP280;2801;50.972;7.856;2023-04-24T10:47:59;96564.69;;;8.01
24201;BMP280;2801;50.972;7.856;2023-04-24T10:50:51;96578.63;;;8.06
24201;BMP280;2801;50.972;7.856;2023-04-24T10:53:36;96587.03;;;8.17
24201;BMP280;2801;50.972;7.856;2023-04-24T10:56:21;96592.28;;;8.25
24201;BMP280;2801;50.972;7.856;2023-04-24T10:58:53;96586.25;;;8.16
24201;BMP280;2801;50.972;7.856;2023-04-24T11:01:31;96607.00;;;8.31
24201;BMP280;2801;50.972;7.856;2023-04-24T11:04:02;96605.03;;;8.40
24201;BMP280;2801;50.972;7.856;2023-04-24T11:06:47;96602.28;;;8.49
24201;BMP280;2801;50.972;7.856;2023-04-24T11:09:15;96607.09;;;8.55
24201;BMP280;2801;50.972;7.856;2023-04-24T11:11:46;96605.31;;;8.59
24201;BMP280;2801;50.972;7.856;2023-04-24T11:17:42;96612.75;;;8.54
24201;BMP280;2801;50.972;7.856;2023-04-24T11:20:17;96614.78;;;8.57
24201;BMP280;2801;50.972;7.856;2023-04-24T11:22:54;96624.38;;;8.58
24201;BMP280;2801;50.972;7.856;2023-04-24T11:25:22;96625.91;;;8.59
24201;BMP280;2801;50.972;7.856;2023-04-24T11:27:49;96628.63;;;8.83
24201;BMP280;2801;50.972;7.856;2023-04-24T11:30:34;96622.13;;;9.16
24201;BMP280;2801;50.972;7.856;2023-04-24T11:33:04;96624.34;;;9.38
24201;BMP280;2801;50.972;7.856;2023-04-24T11:35:51;96632.03;;;9.40
24201;BMP280;2801;50.972;7.856;2023-04-24T11:38:18;96632.03;;;9.40
24201;BMP280;2801;50.972;7.856;2023-04-24T11:40:52;96630.00;;;9.37
24201;BMP280;2801;50.972;7.856;2023-04-24T11:43:20;96624.66;;;9.37
24201;BMP280;2801;50.972;7.856;2023-04-24T11:45:48;96631.94;;;9.48
24201;BMP280;2801;50.972;7.856;2023-04-24T11:48:20;96632.16;;;9.55
24201;BMP280;2801;50.972;7.856;2023-04-24T11:50:50;96638.47;;;9.63
24201;BMP280;2801;50.972;7.856;2023-04-24T11:53:20;96635.25;;;9.57
24201;BMP280;2801;50.972;7.856;2023-04-24T11:55:48;96643.41;;;9.37
24201;BMP280;2801;50.972;7.856;2023-04-24T11:58:15;96635.28;;;9.21
24201;BMP280;2801;50.972;7.856;2023-04-24T12:00:56;96657.09;;;9.11
24201;BMP280;2801;50.972;7.856;2023-04-24T12:03:24;96661.44;;;9.16
24201;BMP280;2801;50.972;7.856;2023-04-24T12:05:52;96660.66;;;9.15
24201;BMP280;2801;50.972;7.856;2023-04-24T12:08:31;96672.47;;;9.26
24201;BMP280;2801;50.972;7.856;2023-04-24T12:11:17;96678.47;;;9.11
24201;BMP280;2801;50.972;7.856;2023-04-24T12:13:45;96669.34;;;9.12
24201;BMP280;2801;50.972;7.856;2023-04-24T12:16:12;96663.38;;;9.39
24201;BMP280;2801;50.972;7.856;2023-04-24T12:18:44;96674.38;;;9.62
24201;BMP280;2801;50.972;7.856;2023-04-24T12:21:29;96666.91;;;9.79
24201;BMP280;2801;50.972;7.856;2023-04-24T12:23:58;96676.81;;;9.91
24201;BMP280;2801;50.972;7.856;2023-04-24T12:26:26;96679.25;;;10.08
24201;BMP280;2801;50.972;7.856;2023-04-24T12:28:53;96675.13;;;10.22
24201;BMP280;2801;50.972;7.856;2023-04-24T12:31:21;96667.47;;;10.36
24201;BMP280;2801;50.972;7.856;2023-04-24T12:33:49;96676.97;;;10.61
24201;BMP280;2801;50.972;7.856;2023-04-24T12:36:16;96668.47;;;10.87
24201;BMP280;2801;50.972;7.856;2023-04-24T12:38:44;96673.28;;;11.09
24201;BMP280;2801;50.972;7.856;2023-04-24T12:41:31;96662.66;;;11.12
24201;BMP280;2801;50.972;7.856;2023-04-24T12:43:57;96682.66;;;10.87
24201;BMP280;2801;50.972;7.856;2023-04-24T12:46:24;96673.16;;;10.74
24201;BMP280;2801;50.972;7.856;2023-04-24T12:49:09;96688.16;;;10.63
24201;BMP280;2801;50.972;7.856;2023-04-24T12:51:36;96687.63;;;10.58
24201;BMP280;2801;50.972;7.856;2023-04-24T12:54:03;96682.66;;;10.44
24201;BMP280;2801;50.972;7.856;2023-04-24T12:56:48;96695.09;;;10.25
24201;BMP280;2801;50.972;7.856;2023-04-24T12:59:15;96703.03;;;10.09
24201;BMP280;2801;50.972;7.856;2023-04-24T13:01:59;96712.75;;;9.90
24201;BMP280;2801;50.972;7.856;2023-04-24T13:04:26;96701.38;;;9.81
24201;BMP280;2801;50.972;7.856;2023-04-24T13:06:53;96711.19;;;9.77
24201;BMP280;2801;50.972;7.856;2023-04-24T13:09:20;96699.38;;;9.90
24201;BMP280;2801;50.972;7.856;2023-04-24T13:11:47;96707.81;;;10.16
24201;BMP280;2801;50.972;7.856;2023-04-24T13:14:14;96705.81;;;10.25
24201;BMP280;2801;50.972;7.856;2023-04-24T13:16:41;96708.44;;;10.37
24201;BMP280;2801;50.972;7.856;2023-04-24T13:19:08;96712.69;;;10.38
24201;BMP280;2801;50.972;7.856;2023-04-24T13:21:35;96709.13;;;10.34
24201;BMP280;2801;50.972;7.856;2023-04-24T13:24:02;96716.38;;;10.21
24201;BMP280;2801;50.972;7.856;2023-04-24T13:26:48;96709.59;;;10.12
24201;BMP280;2801;50.972;7.856;2023-04-24T13:29:32;96715.75;;;10.12
24201;BMP280;2801;50.972;7.856;2023-04-24T13:31:59;96723.13;;;10.15
24201;BMP280;2801;50.972;7.856;2023-04-24T13:34:27;96708.16;;;10.26
24201;BMP280;2801;50.972;7.856;2023-04-24T13:37:11;96707.34;;;10.65
24201;BMP280;2801;50.972;7.856;2023-04-24T13:39:56;96712.09;;;10.99
24201;BMP280;2801;50.972;7.856;2023-04-24T13:42:23;96708.31;;;11.16
24201;BMP280;2801;50.972;7.856;2023-04-24T13:44:50;96707.50;;;11.27
24201;BMP280;2801;50.972;7.856;2023-04-24T13:47:35;96719.31;;;11.26
24201;BMP280;2801;50.972;7.856;2023-04-24T13:50:03;96720.59;;;11.17
24201;BMP280;2801;50.972;7.856;2023-04-24T13:52:30;96703.66;;;11.13
24201;BMP280;2801;50.972;7.856;2023-04-24T13:54:57;96718.44;;;11.07
24201;BMP280;2801;50.972;7.856;2023-04-24T13:57:24;96708.31;;;11.16
24201;BMP280;2801;50.972;7.856;2023-04-24T13:59:51;96713.78;;;11.19
24201;BMP280;2801;50.972;7.856;2023-04-24T14:02:17;96711.28;;;11.26
24201;BMP280;2801;50.972;7.856;2023-04-24T14:04:44;96713.47;;;11.37
24201;BMP280;2801;50.972;7.856;2023-04-24T14:07:12;96718.56;;;11.42
24201;BMP280;2801;50.972;7.856;2023-04-24T14:09:39;96722.28;;;11.53
24201;BMP280;2801;50.972;7.856;2023-04-24T14:12:06;96697.31;;;11.64
24201;BMP280;2801;50.972;7.856;2023-04-24T14:14:34;96700.22;;;11.90
24201;BMP280;2801;50.972;7.856;2023-04-24T14:17:01;96708.34;;;11.94
24201;BMP280;2801;50.972;7.856;2023-04-24T14:19:28;96709.03;;;11.91
24201;BMP280;2801;50.972;7.856;2023-04-24T14:21:55;96695.88;;;11.86
24201;BMP280;2801;50.972;7.856;2023-04-24T14:24:24;96689.66;;;11.82
24201;BMP280;2801;50.972;7.856;2023-04-24T14:26:52;96708.91;;;11.68
24201;BMP280;2801;50.972;7.856;2023-04-24T14:29:19;96702.22;;;11.62
24201;BMP280;2801;50.972;7.856;2023-04-24T14:31:46;96713.19;;;11.57
24201;BMP280;2801;50.972;7.856;2023-04-24T14:34:14;96712.50;;;11.60
24201;BMP280;2801;50.972;7.856;2023-04-24T14:36:41;96702.13;;;11.74
24201;BMP280;2801;50.972;7.856;2023-04-24T14:39:10;96706.63;;;11.86
24201;BMP280;2801;50.972;7.856;2023-04-24T14:41:37;96714.41;;;11.91
24201;BMP280;2801;50.972;7.856;2023-04-24T14:44:05;96700.00;;;11.99
24201;BMP280;2801;50.972;7.856;2023-04-24T14:46:32;96704.78;;;12.05